createdAt,value
2019-02-28T00:01:35.900Z,3.00
2019-02-28T00:04:07.295Z,2.90
2019-02-28T00:06:43.984Z,2.90
2019-02-28T00:09:13.682Z,2.90
2019-02-28T00:11:43.766Z,2.90
2019-02-28T00:14:13.841Z,2.90
2019-02-28T00:16:46.269Z,3.00
2019-02-28T00:19:17.360Z,3.10
2019-02-28T00:21:47.434Z,3.00
2019-02-28T00:24:27.174Z,2.90
2019-02-28T00:26:56.127Z,2.80
2019-02-28T00:29:26.207Z,2.90
2019-02-28T00:31:58.009Z,2.90
2019-02-28T00:34:27.979Z,3.00
2019-02-28T00:36:58.066Z,3.00
2019-02-28T00:39:31.442Z,3.00
2019-02-28T00:42:01.497Z,2.90
2019-02-28T00:44:31.555Z,2.80
2019-02-28T00:47:01.632Z,2.70
2019-02-28T00:49:33.419Z,2.60
2019-02-28T00:52:08.203Z,2.70
2019-02-28T00:54:43.229Z,2.80
2019-02-28T00:57:12.959Z,2.90
2019-02-28T00:59:42.738Z,3.00
2019-02-28T01:02:13.763Z,3.10
2019-02-28T01:04:47.057Z,3.10
2019-02-28T01:07:20.797Z,3.10
2019-02-28T01:09:52.496Z,3.10
2019-02-28T01:12:24.040Z,3.00
2019-02-28T01:14:54.059Z,2.90
2019-02-28T01:17:26.703Z,3.00
2019-02-28T01:20:03.280Z,3.00
2019-02-28T01:22:33.382Z,3.00
2019-02-28T01:25:06.477Z,3.00
2019-02-28T01:27:36.385Z,2.90
2019-02-28T01:30:08.221Z,2.90
2019-02-28T01:32:38.704Z,2.90
2019-02-28T01:35:12.332Z,2.90
2019-02-28T01:37:43.416Z,2.80
2019-02-28T01:40:16.162Z,2.80
2019-02-28T01:42:47.188Z,2.90
2019-02-28T01:45:18.557Z,3.00
2019-02-28T01:47:52.360Z,3.00
2019-02-28T01:50:24.230Z,2.90
2019-02-28T01:52:54.306Z,2.90
2019-02-28T01:55:24.323Z,2.90
2019-02-28T01:57:54.404Z,2.90
2019-02-28T02:00:29.190Z,2.80
2019-02-28T02:02:59.168Z,2.70
2019-02-28T02:05:29.356Z,2.60
2019-02-28T02:08:07.298Z,2.60
2019-02-28T02:10:32.154Z,2.50
2019-02-28T02:13:04.346Z,2.50
2019-02-28T02:15:39.537Z,2.30
2019-02-28T02:18:12.010Z,2.30
2019-02-28T02:20:41.331Z,2.30
2019-02-28T02:23:17.839Z,2.30
2019-02-28T02:25:44.834Z,2.50
2019-02-28T02:28:16.113Z,2.60
2019-02-28T02:30:50.507Z,2.60
2019-02-28T02:33:18.581Z,2.60
2019-02-28T02:35:49.782Z,2.70
2019-02-28T02:38:21.643Z,2.70
2019-02-28T02:40:58.944Z,2.60
2019-02-28T02:43:26.475Z,2.60
2019-02-28T02:45:56.547Z,2.60
2019-02-28T02:48:26.766Z,2.30
2019-02-28T02:50:56.888Z,2.10
2019-02-28T02:53:30.825Z,2.00
2019-02-28T02:56:03.900Z,1.80
2019-02-28T02:58:33.785Z,1.70
2019-02-28T03:01:03.931Z,1.60
2019-02-28T03:03:35.105Z,1.70
2019-02-28T03:06:12.132Z,1.70
2019-02-28T03:08:38.282Z,1.70
2019-02-28T03:11:08.391Z,1.70
2019-02-28T03:13:44.015Z,1.70
2019-02-28T03:16:25.489Z,1.60
2019-02-28T03:18:58.168Z,1.70
2019-02-28T03:21:26.382Z,1.70
2019-02-28T03:23:57.626Z,1.70
2019-02-28T03:26:28.863Z,1.70
2019-02-28T03:29:07.506Z,1.80
2019-02-28T03:31:32.246Z,1.80
2019-02-28T03:34:11.336Z,1.80
2019-02-28T03:36:35.257Z,1.90
2019-02-28T03:39:07.211Z,2.00
2019-02-28T03:41:37.271Z,1.90
2019-02-28T03:44:10.114Z,2.10
2019-02-28T03:46:47.054Z,2.10
2019-02-28T03:49:16.193Z,2.10
2019-02-28T03:51:46.229Z,2.20
2019-02-28T03:54:18.054Z,2.30
2019-02-28T03:56:52.820Z,2.30
2019-02-28T03:59:20.228Z,2.40
2019-02-28T04:01:50.404Z,2.30
2019-02-28T04:04:24.869Z,2.30
2019-02-28T04:06:59.246Z,2.20
2019-02-28T04:09:30.411Z,2.30
2019-02-28T04:12:07.259Z,2.30
2019-02-28T04:14:33.065Z,2.20
2019-02-28T04:17:03.891Z,2.20
2019-02-28T04:19:34.041Z,2.10
2019-02-28T04:22:05.749Z,2.10
2019-02-28T04:24:36.925Z,2.00
2019-02-28T04:27:07.886Z,2.00
2019-02-28T04:29:38.073Z,2.00
2019-02-28T04:32:08.174Z,1.90
2019-02-28T04:34:38.268Z,1.90
2019-02-28T04:37:10.112Z,1.80
2019-02-28T04:39:40.182Z,1.70
2019-02-28T04:42:10.326Z,1.70
2019-02-28T04:44:40.492Z,1.70
2019-02-28T04:47:13.709Z,1.70
2019-02-28T04:49:43.836Z,1.60
2019-02-28T04:52:13.825Z,1.50
2019-02-28T04:54:43.835Z,1.50
2019-02-28T04:57:17.335Z,1.40
2019-02-28T04:59:46.710Z,1.30
2019-02-28T05:02:19.943Z,1.30
2019-02-28T05:04:54.705Z,1.30
2019-02-28T05:07:26.293Z,1.40
2019-02-28T05:09:57.773Z,1.40
2019-02-28T05:12:27.851Z,1.50
2019-02-28T05:15:02.517Z,1.50
2019-02-28T05:17:34.419Z,1.50
2019-02-28T05:20:07.318Z,1.60
2019-02-28T05:22:36.247Z,1.60
2019-02-28T05:25:06.359Z,1.70
2019-02-28T05:27:37.947Z,1.80
2019-02-28T05:30:09.931Z,1.80
2019-02-28T05:32:40.075Z,1.90
2019-02-28T05:35:10.215Z,1.90
2019-02-28T05:37:46.409Z,2.00
2019-02-28T05:40:14.264Z,1.90
2019-02-28T05:42:44.249Z,2.00
2019-02-28T05:45:15.703Z,2.00
2019-02-28T05:47:47.560Z,2.00
2019-02-28T05:50:17.712Z,2.00
2019-02-28T05:52:47.827Z,2.10
2019-02-28T05:55:25.617Z,2.10
2019-02-28T05:57:53.977Z,2.00
2019-02-28T06:00:29.959Z,2.00
2019-02-28T06:03:04.532Z,2.00
2019-02-28T06:05:31.144Z,2.00
2019-02-28T06:08:03.555Z,2.10
2019-02-28T06:10:35.935Z,2.20
2019-02-28T06:13:15.321Z,2.30
2019-02-28T06:15:49.338Z,2.40
2019-02-28T06:18:22.724Z,2.40
2019-02-28T06:20:55.862Z,2.40
2019-02-28T06:23:30.115Z,2.40
2019-02-28T06:26:02.642Z,2.50
2019-02-28T06:28:34.338Z,2.70
2019-02-28T06:31:03.705Z,2.90
2019-02-28T06:33:36.193Z,3.10
2019-02-28T06:36:07.122Z,3.30
2019-02-28T06:38:38.421Z,4.60
2019-02-28T06:41:09.678Z,6.70
2019-02-28T06:43:40.928Z,9.00
2019-02-28T06:46:12.196Z,11.10
2019-02-28T06:48:47.978Z,12.60
2019-02-28T06:51:18.604Z,12.90
2019-02-28T06:53:48.738Z,12.20
2019-02-28T06:56:21.878Z,12.60
2019-02-28T06:58:51.904Z,13.50
2019-02-28T07:01:29.579Z,14.20
2019-02-28T07:03:58.648Z,15.00
2019-02-28T07:06:35.690Z,15.60
2019-02-28T07:09:03.804Z,16.70
2019-02-28T07:11:33.876Z,18.10
2019-02-28T07:14:03.941Z,18.40
2019-02-28T07:16:38.026Z,17.90
2019-02-28T07:19:08.264Z,18.10
2019-02-28T07:21:42.981Z,18.50
2019-02-28T07:24:11.256Z,19.40
2019-02-28T07:26:42.725Z,20.40
2019-02-28T07:29:12.824Z,21.40
2019-02-28T07:31:42.911Z,22.40
2019-02-28T07:34:19.682Z,22.70
2019-02-28T07:36:48.073Z,22.50
2019-02-28T07:39:18.185Z,23.20
2019-02-28T07:41:52.399Z,23.30
2019-02-28T07:44:27.948Z,23.70
2019-02-28T07:46:59.121Z,24.30
2019-02-28T07:49:35.826Z,26.00
2019-02-28T07:52:04.016Z,26.90
2019-02-28T07:54:35.444Z,27.50
2019-02-28T07:57:05.564Z,27.20
2019-02-28T07:59:40.979Z,27.70
2019-02-28T08:02:08.716Z,28.50
2019-02-28T08:04:38.885Z,28.60
2019-02-28T08:07:11.489Z,27.00
2019-02-28T08:09:41.523Z,26.60
2019-02-28T08:12:12.917Z,25.80
2019-02-28T08:14:43.718Z,25.20
2019-02-28T08:17:14.811Z,27.20
2019-02-28T08:19:46.849Z,26.80
2019-02-28T08:22:23.248Z,28.30
2019-02-28T08:24:48.441Z,28.60
2019-02-28T08:27:18.598Z,28.60
2019-02-28T08:29:48.704Z,29.20
2019-02-28T08:32:18.875Z,29.10
2019-02-28T08:34:49.050Z,29.20
2019-02-28T08:37:20.136Z,28.30
2019-02-28T08:39:50.606Z,29.90
2019-02-28T08:42:20.713Z,30.50
2019-02-28T08:44:50.910Z,30.70
2019-02-28T08:47:21.820Z,29.60
2019-02-28T08:49:52.059Z,30.40
2019-02-28T08:52:22.204Z,29.80
2019-02-28T08:54:52.374Z,30.00
2019-02-28T08:57:25.679Z,30.60
2019-02-28T08:59:56.339Z,30.30
2019-02-28T09:02:25.993Z,29.60
2019-02-28T09:04:56.080Z,29.80
2019-02-28T09:07:26.114Z,29.40
2019-02-28T09:09:56.127Z,30.00
2019-02-28T09:12:26.244Z,29.30
2019-02-28T09:14:56.365Z,30.50
2019-02-28T09:17:26.428Z,31.60
2019-02-28T09:19:56.420Z,31.60
2019-02-28T09:22:27.454Z,31.50
2019-02-28T09:24:58.322Z,30.90
2019-02-28T09:27:28.415Z,31.40
2019-02-28T09:29:58.433Z,31.40
2019-02-28T09:32:28.434Z,31.90
2019-02-28T09:34:58.523Z,31.50
2019-02-28T09:37:29.810Z,33.40
2019-02-28T09:40:00.414Z,34.70
2019-02-28T09:42:30.501Z,35.30
2019-02-28T09:45:06.818Z,36.00
2019-02-28T09:47:32.387Z,35.30
2019-02-28T09:50:02.507Z,35.00
2019-02-28T09:52:32.621Z,35.80
2019-02-28T09:55:02.786Z,35.60
2019-02-28T09:57:32.873Z,34.30
2019-02-28T10:00:02.952Z,33.30
2019-02-28T10:02:33.038Z,31.40
2019-02-28T10:05:06.570Z,31.00
2019-02-28T10:07:35.115Z,29.60
2019-02-28T10:10:05.998Z,28.40
2019-02-28T10:12:36.041Z,29.90
2019-02-28T10:15:07.474Z,29.40
2019-02-28T10:17:37.621Z,29.20
2019-02-28T10:20:10.919Z,29.50
2019-02-28T10:22:40.975Z,29.70
2019-02-28T10:25:11.343Z,29.00
2019-02-28T10:27:41.331Z,29.50
2019-02-28T10:30:15.946Z,28.80
2019-02-28T10:32:45.593Z,28.40
2019-02-28T10:35:15.782Z,29.00
2019-02-28T10:37:45.879Z,29.70
2019-02-28T10:40:18.726Z,30.30
2019-02-28T10:42:49.512Z,30.50
2019-02-28T10:45:19.682Z,30.70
2019-02-28T10:47:50.065Z,31.50
2019-02-28T10:50:21.719Z,30.10
2019-02-28T10:52:51.801Z,30.70
2019-02-28T10:55:24.623Z,29.90
2019-02-28T10:57:54.758Z,30.60
2019-02-28T11:00:32.903Z,30.00
2019-02-28T11:03:02.883Z,29.40
2019-02-28T11:05:34.008Z,28.50
2019-02-28T11:08:04.608Z,28.30
2019-02-28T11:10:39.026Z,28.80
2019-02-28T11:13:12.355Z,28.40
2019-02-28T11:15:47.947Z,28.50
2019-02-28T11:18:14.972Z,28.20
2019-02-28T11:20:46.895Z,26.10
2019-02-28T11:23:18.303Z,23.70
2019-02-28T11:28:31.368Z,20.80
2019-02-28T11:31:01.745Z,20.40
2019-02-28T11:33:32.920Z,20.20
2019-02-28T11:36:04.164Z,19.80
2019-02-28T11:38:34.256Z,19.40
2019-02-28T11:41:04.535Z,19.20
2019-02-28T11:43:38.429Z,19.20
2019-02-28T11:46:09.615Z,19.10
2019-02-28T11:48:39.696Z,19.10
2019-02-28T11:51:09.788Z,18.90
2019-02-28T11:53:40.587Z,19.00
2019-02-28T11:56:10.935Z,19.10
2019-02-28T11:58:42.623Z,18.80
2019-02-28T12:01:14.062Z,18.80
2019-02-28T12:03:44.114Z,18.70
2019-02-28T12:06:14.287Z,18.50
2019-02-28T12:08:44.894Z,18.50
2019-02-28T12:11:15.961Z,18.30
2019-02-28T12:13:46.061Z,18.20
2019-02-28T12:16:19.256Z,18.20
2019-02-28T12:18:51.067Z,18.20
2019-02-28T12:21:22.762Z,18.30
2019-02-28T12:23:57.373Z,18.30
2019-02-28T12:26:26.397Z,18.30
2019-02-28T12:28:58.043Z,18.20
2019-02-28T12:31:28.229Z,18.00
2019-02-28T12:33:59.946Z,18.00
2019-02-28T12:36:30.021Z,18.10
2019-02-28T12:39:03.375Z,18.30
2019-02-28T12:41:33.517Z,18.10
2019-02-28T12:44:07.870Z,17.90
2019-02-28T12:46:38.374Z,17.80
2019-02-28T12:49:08.463Z,17.80
2019-02-28T12:51:39.660Z,17.70
2019-02-28T12:54:10.445Z,17.70
2019-02-28T12:56:40.547Z,17.70
2019-02-28T12:59:10.933Z,17.80
2019-02-28T13:01:41.078Z,17.80
2019-02-28T13:04:11.153Z,17.80
2019-02-28T13:06:41.263Z,17.80
2019-02-28T13:09:13.699Z,17.80
2019-02-28T13:11:43.433Z,17.80
2019-02-28T13:14:13.516Z,17.80
2019-02-28T13:16:43.581Z,17.70
2019-02-28T13:19:16.403Z,17.60
2019-02-28T13:21:47.864Z,17.60
2019-02-28T13:24:18.117Z,17.60
2019-02-28T13:26:48.112Z,17.60
2019-02-28T13:29:18.118Z,17.50
2019-02-28T13:31:48.234Z,17.60
2019-02-28T13:34:19.926Z,17.50
2019-02-28T13:36:50.099Z,17.40
2019-02-28T13:39:23.490Z,17.40
2019-02-28T13:41:53.765Z,17.40
2019-02-28T13:44:27.056Z,17.30
2019-02-28T13:46:57.378Z,17.20
2019-02-28T13:49:28.824Z,17.10
2019-02-28T13:51:58.840Z,17.20
2019-02-28T13:54:28.856Z,17.20
2019-02-28T13:56:58.929Z,17.20
2019-02-28T13:59:31.870Z,17.20
2019-02-28T14:02:00.881Z,17.10
2019-02-28T14:04:32.886Z,17.10
2019-02-28T14:07:07.332Z,17.00
2019-02-28T14:09:35.921Z,17.00
2019-02-28T14:12:06.002Z,16.90
2019-02-28T14:14:38.915Z,17.00
2019-02-28T14:17:09.853Z,17.00
2019-02-28T14:19:39.959Z,17.00
2019-02-28T14:22:11.552Z,17.00
2019-02-28T14:24:41.873Z,16.90
2019-02-28T14:27:11.885Z,16.90
2019-02-28T14:29:48.060Z,17.00
2019-02-28T14:32:14.601Z,17.00
2019-02-28T14:34:44.679Z,16.90
2019-02-28T14:37:16.822Z,16.90
2019-02-28T14:39:46.960Z,16.90
2019-02-28T14:42:16.956Z,16.90
2019-02-28T14:44:46.943Z,16.90
2019-02-28T14:47:17.049Z,16.90
2019-02-28T14:49:47.053Z,16.80
2019-02-28T14:52:17.141Z,16.80
2019-02-28T14:54:47.183Z,16.70
2019-02-28T14:57:17.758Z,16.70
2019-02-28T14:59:47.865Z,16.80
2019-02-28T15:02:18.328Z,16.80
2019-02-28T15:04:48.351Z,16.80
2019-02-28T15:07:18.425Z,16.80
2019-02-28T15:09:48.435Z,16.70
2019-02-28T15:12:20.261Z,16.60
2019-02-28T15:14:50.328Z,16.60
2019-02-28T15:17:20.464Z,16.60
2019-02-28T15:19:57.062Z,16.70
2019-02-28T15:22:25.802Z,16.60
2019-02-28T15:24:55.876Z,16.60
2019-02-28T15:27:25.911Z,16.50
2019-02-28T15:29:58.900Z,16.50
2019-02-28T15:32:27.802Z,16.50
2019-02-28T15:35:01.374Z,16.40
2019-02-28T15:37:34.821Z,16.30
2019-02-28T15:40:03.133Z,16.30
2019-02-28T15:42:33.266Z,16.00
2019-02-28T15:45:04.107Z,15.90
2019-02-28T15:47:35.292Z,15.80
2019-02-28T15:50:06.254Z,15.70
2019-02-28T15:52:36.721Z,15.60
2019-02-28T15:55:09.589Z,15.50
2019-02-28T15:57:39.899Z,15.30
2019-02-28T16:00:17.443Z,15.10
2019-02-28T16:02:47.913Z,15.00
2019-02-28T16:05:23.797Z,14.90
2019-02-28T16:07:56.143Z,14.80
2019-02-28T16:10:28.518Z,14.60
2019-02-28T16:12:59.742Z,14.50
2019-02-28T16:15:29.936Z,14.40
2019-02-28T16:18:02.721Z,14.50
2019-02-28T16:20:32.896Z,14.40
2019-02-28T16:23:03.135Z,14.40
2019-02-28T16:25:36.930Z,14.20
2019-02-28T16:28:09.115Z,14.20
2019-02-28T16:30:39.869Z,14.20
2019-02-28T16:33:10.028Z,14.20
2019-02-28T16:35:40.053Z,14.20
2019-02-28T16:38:11.228Z,14.30
2019-02-28T16:40:42.611Z,14.20
2019-02-28T16:43:12.774Z,14.20
2019-02-28T16:45:46.333Z,14.00
2019-02-28T16:48:18.006Z,13.90
2019-02-28T16:50:53.677Z,13.70
2019-02-28T16:53:23.829Z,13.60
2019-02-28T16:55:58.312Z,13.40
2019-02-28T16:58:31.171Z,13.20
2019-02-28T17:01:01.181Z,13.10
2019-02-28T17:03:31.382Z,12.90
2019-02-28T17:06:02.241Z,12.90
2019-02-28T17:08:43.128Z,12.70
2019-02-28T17:11:14.625Z,12.70
2019-02-28T17:13:51.323Z,12.60
2019-02-28T17:16:43.413Z,12.50
2019-02-28T17:19:15.287Z,12.40
2019-02-28T17:21:45.365Z,12.40
2019-02-28T17:24:37.319Z,12.50
2019-02-28T17:27:21.713Z,12.40
2019-02-28T17:30:08.320Z,12.40
2019-02-28T17:32:41.524Z,12.40
2019-02-28T17:35:12.741Z,12.60
2019-02-28T17:37:42.818Z,12.70
2019-02-28T17:40:15.607Z,12.60
2019-02-28T17:42:46.402Z,12.40
2019-02-28T17:45:24.519Z,12.30
2019-02-28T17:48:48.791Z,12.20
2019-02-28T17:51:27.597Z,11.90
2019-02-28T17:54:24.446Z,11.50
2019-02-28T17:57:53.725Z,11.50
2019-02-28T18:00:51.848Z,11.60
2019-02-28T18:03:56.889Z,11.80
2019-02-28T18:07:23.709Z,11.90
2019-02-28T18:10:47.940Z,11.90
2019-02-28T18:13:37.331Z,11.80
2019-02-28T18:17:02.146Z,11.70
2019-02-28T18:20:04.114Z,11.50
2019-02-28T18:23:05.048Z,11.50
2019-02-28T18:26:02.269Z,11.40
2019-02-28T18:28:43.986Z,11.30
2019-02-28T18:31:22.250Z,11.20
2019-02-28T18:34:04.198Z,11.10
2019-02-28T18:36:34.392Z,11.10
2019-02-28T18:39:11.480Z,10.90
2019-02-28T18:41:42.232Z,10.90
2019-02-28T18:44:12.869Z,10.90
2019-02-28T18:46:45.002Z,10.90
2019-02-28T18:49:17.060Z,10.90
2019-02-28T18:51:49.947Z,11.00
2019-02-28T18:54:21.147Z,11.00
2019-02-28T18:56:53.028Z,10.90
2019-02-28T18:59:23.129Z,10.80
2019-02-28T19:01:53.230Z,10.80
2019-02-28T19:04:23.328Z,10.80
2019-02-28T19:06:53.377Z,10.80
2019-02-28T19:09:24.681Z,10.80
2019-02-28T19:11:54.854Z,10.90
2019-02-28T19:14:24.982Z,10.90
2019-02-28T19:16:55.123Z,11.00
2019-02-28T19:19:25.221Z,11.10
2019-02-28T19:21:55.401Z,11.20
2019-02-28T19:24:25.520Z,11.20
2019-02-28T19:26:55.735Z,11.10
2019-02-28T19:29:25.755Z,11.10
2019-02-28T19:31:55.838Z,11.00
2019-02-28T19:34:25.977Z,10.80
2019-02-28T19:36:56.089Z,10.70
2019-02-28T19:39:26.197Z,10.60
2019-02-28T19:41:56.411Z,10.60
2019-02-28T19:44:26.597Z,10.60
2019-02-28T19:46:56.717Z,10.60
2019-02-28T19:49:26.990Z,10.50
2019-02-28T19:51:57.273Z,10.40
2019-02-28T19:54:27.445Z,10.20
2019-02-28T19:56:57.533Z,10.10
2019-02-28T19:59:27.816Z,10.10
2019-02-28T20:01:58.155Z,10.00
2019-02-28T20:04:28.207Z,9.90
2019-02-28T20:06:58.331Z,9.80
2019-02-28T20:09:28.523Z,9.70
2019-02-28T20:12:00.567Z,9.50
2019-02-28T20:14:30.324Z,9.60
2019-02-28T20:17:00.404Z,9.50
2019-02-28T20:19:30.524Z,9.50
2019-02-28T20:22:00.654Z,9.40
2019-02-28T20:24:30.845Z,9.40
2019-02-28T20:27:01.032Z,9.50
2019-02-28T20:29:31.204Z,9.50
2019-02-28T20:32:01.317Z,9.40
2019-02-28T20:34:31.505Z,9.40
2019-02-28T20:37:01.704Z,9.40
2019-02-28T20:39:32.008Z,9.40
2019-02-28T20:42:03.317Z,9.40
2019-02-28T20:44:33.394Z,9.40
2019-02-28T20:47:03.576Z,9.50
2019-02-28T20:49:33.747Z,9.40
2019-02-28T20:52:03.902Z,9.40
2019-02-28T20:54:34.260Z,9.30
2019-02-28T20:57:04.622Z,9.40
2019-02-28T20:59:35.062Z,9.70
2019-02-28T21:02:05.144Z,9.80
2019-02-28T21:04:36.336Z,9.90
2019-02-28T21:07:06.645Z,10.10
2019-02-28T21:09:44.759Z,10.10
2019-02-28T21:12:08.626Z,10.20
2019-02-28T21:14:38.759Z,10.30
2019-02-28T21:17:09.143Z,10.30
2019-02-28T21:19:39.239Z,10.30
2019-02-28T21:22:09.311Z,10.30
2019-02-28T21:24:39.439Z,10.30
2019-02-28T21:27:09.616Z,10.30
2019-02-28T21:29:39.768Z,10.30
2019-02-28T21:32:09.890Z,10.30
2019-02-28T21:34:39.968Z,10.30
2019-02-28T21:37:10.128Z,10.20
2019-02-28T21:39:40.219Z,10.20
2019-02-28T21:42:10.319Z,10.20
2019-02-28T21:44:40.406Z,10.10
2019-02-28T21:47:10.503Z,10.20
2019-02-28T21:49:40.639Z,10.20
2019-02-28T21:52:10.886Z,10.20
2019-02-28T21:54:41.029Z,10.20
2019-02-28T21:57:11.109Z,10.20
2019-02-28T21:59:41.117Z,10.20
2019-02-28T22:02:11.235Z,10.20
2019-02-28T22:04:41.339Z,10.20
2019-02-28T22:07:11.352Z,10.30
2019-02-28T22:09:41.450Z,10.30
2019-02-28T22:12:11.573Z,10.20
2019-02-28T22:14:41.651Z,10.10
2019-02-28T22:17:11.745Z,10.10
2019-02-28T22:19:41.834Z,10.10
2019-02-28T22:22:14.809Z,10.00
2019-02-28T22:24:44.903Z,10.10
2019-02-28T22:27:15.034Z,9.90
2019-02-28T22:29:45.377Z,9.80
2019-02-28T22:32:26.779Z,9.80
2019-02-28T22:35:02.404Z,9.90
2019-02-28T22:37:32.566Z,10.00
2019-02-28T22:40:02.653Z,10.00
2019-02-28T22:42:32.744Z,10.10
2019-02-28T22:45:02.753Z,10.10
2019-02-28T22:47:32.858Z,10.10
2019-02-28T22:50:02.955Z,10.10
2019-02-28T22:52:33.050Z,10.10
2019-02-28T22:55:03.236Z,10.20
2019-02-28T22:57:34.322Z,10.30
2019-02-28T23:00:05.962Z,10.30
2019-02-28T23:02:36.122Z,10.30
2019-02-28T23:05:08.143Z,10.20
2019-02-28T23:07:38.244Z,10.10
2019-02-28T23:10:09.866Z,10.00
2019-02-28T23:12:39.884Z,10.00
2019-02-28T23:15:09.956Z,9.90
2019-02-28T23:17:44.014Z,9.90
2019-02-28T23:20:14.364Z,9.90
2019-02-28T23:22:45.928Z,10.00
2019-02-28T23:25:17.336Z,10.00
2019-02-28T23:27:47.739Z,10.00
2019-02-28T23:30:56.274Z,10.00
2019-02-28T23:33:26.282Z,10.00
2019-02-28T23:35:56.457Z,10.00
2019-02-28T23:38:29.463Z,10.00
2019-02-28T23:41:02.461Z,10.00
2019-02-28T23:43:33.695Z,10.00
2019-02-28T23:46:05.066Z,10.00
2019-02-28T23:48:37.929Z,10.00
2019-02-28T23:51:09.108Z,10.00
2019-02-28T23:53:39.249Z,10.00
2019-02-28T23:56:10.608Z,9.90
2019-02-28T23:58:41.710Z,9.90
